createdAt,value
2022-10-26T00:01:12.068Z,1.87
2022-10-26T00:03:40.930Z,1.60
2022-10-26T00:06:13.418Z,1.70
2022-10-26T00:08:40.369Z,1.57
2022-10-26T00:11:07.883Z,1.40
2022-10-26T00:13:35.697Z,1.60
2022-10-26T00:16:08.802Z,1.70
2022-10-26T00:18:35.448Z,1.53
2022-10-26T00:21:06.774Z,1.30
2022-10-26T00:23:34.175Z,1.27
2022-10-26T00:26:00.967Z,1.40
2022-10-26T00:28:27.533Z,1.20
2022-10-26T00:30:54.588Z,1.63
2022-10-26T00:33:21.575Z,1.60
2022-10-26T00:35:49.314Z,1.50
2022-10-26T00:38:15.929Z,1.10
2022-10-26T00:40:44.169Z,1.57
2022-10-26T00:43:35.942Z,1.50
2022-10-26T00:46:06.240Z,1.27
2022-10-26T00:48:38.253Z,1.53
2022-10-26T00:51:13.839Z,1.40
2022-10-26T00:53:41.488Z,1.40
2022-10-26T00:56:11.574Z,1.40
2022-10-26T00:58:41.769Z,1.63
2022-10-26T01:01:08.971Z,1.00
2022-10-26T01:03:36.718Z,1.20
2022-10-26T01:06:04.946Z,1.50
2022-10-26T01:08:32.170Z,1.43
2022-10-26T01:11:00.307Z,1.40
2022-10-26T01:13:30.199Z,1.23
2022-10-26T01:16:20.549Z,1.20
2022-10-26T01:18:50.775Z,1.60
2022-10-26T01:21:53.105Z,1.20
2022-10-26T01:24:43.250Z,1.70
2022-10-26T01:27:19.472Z,1.50
2022-10-26T01:30:10.783Z,1.10
2022-10-26T01:32:42.501Z,1.13
2022-10-26T01:35:14.395Z,1.60
2022-10-26T01:37:55.038Z,1.50
2022-10-26T01:40:29.850Z,1.43
2022-10-26T01:42:59.067Z,1.37
2022-10-26T01:45:27.991Z,1.50
2022-10-26T01:47:56.398Z,1.57
2022-10-26T01:50:23.434Z,1.50
2022-10-26T01:52:50.807Z,1.47
2022-10-26T01:55:47.979Z,1.50
2022-10-26T01:58:15.282Z,1.30
2022-10-26T02:00:49.850Z,1.20
2022-10-26T02:03:30.246Z,1.00
2022-10-26T02:06:03.067Z,1.20
2022-10-26T02:08:50.477Z,1.30
2022-10-26T02:11:40.081Z,1.53
2022-10-26T02:14:09.398Z,1.30
2022-10-26T02:16:58.973Z,1.27
2022-10-26T02:19:32.779Z,1.20
2022-10-26T02:22:19.276Z,1.40
2022-10-26T02:24:48.324Z,1.63
2022-10-26T02:27:22.055Z,1.40
2022-10-26T02:29:51.992Z,1.70
2022-10-26T02:32:20.391Z,1.30
2022-10-26T02:34:49.519Z,1.47
2022-10-26T02:37:19.778Z,1.40
2022-10-26T02:39:49.540Z,1.47
2022-10-26T02:42:16.485Z,1.53
2022-10-26T02:44:49.214Z,1.43
2022-10-26T02:47:16.639Z,1.30
2022-10-26T02:49:43.710Z,1.30
2022-10-26T02:52:22.388Z,1.37
2022-10-26T02:54:52.740Z,1.60
2022-10-26T02:57:51.611Z,1.27
2022-10-26T03:00:19.096Z,1.50
2022-10-26T03:02:54.538Z,1.43
2022-10-26T03:05:24.856Z,1.40
2022-10-26T03:07:51.693Z,1.40
2022-10-26T03:10:18.982Z,1.43
2022-10-26T03:12:45.499Z,1.30
2022-10-26T03:15:12.488Z,1.67
2022-10-26T03:17:39.254Z,1.27
2022-10-26T03:20:06.399Z,1.30
2022-10-26T03:22:32.887Z,1.30
2022-10-26T03:24:59.510Z,1.50
2022-10-26T03:27:26.997Z,1.17
2022-10-26T03:29:54.166Z,1.40
2022-10-26T03:32:22.284Z,1.70
2022-10-26T03:34:48.852Z,1.33
2022-10-26T03:37:15.489Z,1.70
2022-10-26T03:39:43.155Z,1.30
2022-10-26T03:42:09.603Z,1.40
2022-10-26T03:44:36.123Z,1.50
2022-10-26T03:47:02.638Z,1.20
2022-10-26T03:49:29.223Z,0.93
2022-10-26T03:51:55.776Z,1.30
2022-10-26T03:54:23.167Z,1.33
2022-10-26T03:56:52.673Z,1.73
2022-10-26T03:59:22.499Z,1.30
2022-10-26T04:01:52.678Z,1.70
2022-10-26T04:04:22.235Z,1.50
2022-10-26T04:06:48.864Z,1.50
2022-10-26T04:09:18.038Z,2.07
2022-10-26T04:11:44.562Z,1.50
2022-10-26T04:14:11.381Z,1.30
2022-10-26T04:16:37.995Z,1.40
2022-10-26T04:19:05.056Z,1.40
2022-10-26T04:21:33.109Z,1.27
2022-10-26T04:23:59.689Z,1.80
2022-10-26T04:26:26.210Z,1.40
2022-10-26T04:28:52.721Z,1.17
2022-10-26T04:31:20.234Z,1.40
2022-10-26T04:33:46.780Z,1.43
2022-10-26T04:36:13.309Z,1.30
2022-10-26T04:38:41.838Z,1.40
2022-10-26T04:41:08.353Z,1.33
2022-10-26T04:43:34.897Z,1.13
2022-10-26T04:46:01.444Z,1.43
2022-10-26T04:48:28.840Z,1.43
2022-10-26T04:50:58.898Z,1.73
2022-10-26T04:53:26.875Z,1.73
2022-10-26T04:56:01.121Z,1.30
2022-10-26T04:58:29.041Z,1.77
2022-10-26T05:00:56.007Z,1.60
2022-10-26T05:03:22.902Z,1.50
2022-10-26T05:05:49.456Z,1.50
2022-10-26T05:08:16.344Z,1.53
2022-10-26T05:10:42.906Z,2.00
2022-10-26T05:13:10.753Z,1.63
2022-10-26T05:15:37.304Z,1.53
2022-10-26T05:18:05.742Z,1.40
2022-10-26T05:20:34.730Z,1.40
2022-10-26T05:23:04.937Z,1.53
2022-10-26T05:25:34.495Z,1.70
2022-10-26T05:28:04.189Z,1.40
2022-10-26T05:30:31.480Z,1.40
2022-10-26T05:32:59.616Z,1.60
2022-10-26T05:35:29.938Z,1.83
2022-10-26T05:37:56.503Z,1.50
2022-10-26T05:40:23.476Z,1.60
2022-10-26T05:42:51.432Z,1.40
2022-10-26T05:45:18.448Z,1.60
2022-10-26T05:47:45.516Z,1.60
2022-10-26T05:50:13.449Z,1.30
2022-10-26T05:52:42.755Z,1.30
2022-10-26T05:55:10.509Z,1.30
2022-10-26T05:57:37.705Z,1.53
2022-10-26T06:00:09.280Z,1.40
2022-10-26T06:02:57.635Z,1.57
2022-10-26T06:05:27.912Z,2.23
2022-10-26T06:07:54.781Z,1.50
2022-10-26T06:10:21.620Z,2.47
2022-10-26T06:12:48.702Z,1.53
2022-10-26T06:15:19.595Z,1.80
2022-10-26T06:17:53.866Z,1.30
2022-10-26T06:20:34.153Z,1.37
2022-10-26T06:23:32.064Z,1.73
2022-10-26T06:26:11.414Z,1.70
2022-10-26T06:28:57.066Z,1.60
2022-10-26T06:31:23.744Z,1.70
2022-10-26T06:33:52.512Z,1.67
2022-10-26T06:36:30.067Z,1.90
2022-10-26T06:39:12.385Z,1.97
2022-10-26T06:41:40.137Z,1.60
2022-10-26T06:44:07.250Z,1.90
2022-10-26T06:46:46.142Z,1.80
2022-10-26T06:49:23.067Z,1.77
2022-10-26T06:52:00.045Z,1.80
2022-10-26T06:54:51.527Z,2.07
2022-10-26T06:57:22.922Z,2.37
2022-10-26T06:59:53.409Z,2.03
2022-10-26T07:02:20.809Z,2.17
2022-10-26T07:04:48.052Z,2.00
2022-10-26T07:07:31.074Z,2.23
2022-10-26T07:09:57.978Z,2.47
2022-10-26T07:12:24.490Z,1.67
2022-10-26T07:14:51.064Z,1.90
2022-10-26T07:17:17.718Z,1.90
2022-10-26T07:19:44.844Z,2.00
2022-10-26T07:22:11.865Z,1.70
2022-10-26T07:24:40.063Z,1.87
2022-10-26T07:27:06.632Z,1.97
2022-10-26T07:29:35.232Z,1.60
2022-10-26T07:32:01.859Z,1.70
2022-10-26T07:34:28.424Z,1.90
2022-10-26T07:36:54.895Z,2.10
2022-10-26T07:39:22.061Z,1.90
2022-10-26T07:41:48.582Z,1.93
2022-10-26T07:44:15.512Z,1.90
2022-10-26T07:46:42.114Z,2.40
2022-10-26T07:49:08.750Z,1.83
2022-10-26T07:51:35.265Z,1.83
2022-10-26T07:54:04.907Z,2.10
2022-10-26T07:56:31.712Z,2.30
2022-10-26T07:58:58.372Z,2.33
2022-10-26T08:01:26.108Z,1.90
2022-10-26T08:03:54.900Z,2.13
2022-10-26T08:06:22.567Z,2.40
2022-10-26T08:08:49.443Z,1.97
2022-10-26T08:11:16.950Z,2.20
2022-10-26T08:13:43.678Z,2.10
2022-10-26T08:16:10.394Z,2.30
2022-10-26T08:18:37.033Z,2.13
2022-10-26T08:21:11.631Z,2.60
2022-10-26T08:23:40.068Z,1.93
2022-10-26T08:26:07.218Z,2.10
2022-10-26T08:28:33.755Z,2.45
2022-10-26T08:31:00.301Z,2.37
2022-10-26T08:33:26.911Z,2.10
2022-10-26T08:36:00.674Z,2.40
2022-10-26T08:38:27.896Z,2.30
2022-10-26T08:40:56.745Z,2.27
2022-10-26T08:43:30.084Z,1.83
2022-10-26T08:46:11.465Z,2.10
2022-10-26T08:48:49.943Z,1.90
2022-10-26T08:51:37.441Z,1.90
2022-10-26T08:54:06.695Z,2.30
2022-10-26T08:56:40.905Z,2.00
2022-10-26T08:59:20.104Z,1.60
2022-10-26T09:01:46.835Z,2.07
2022-10-26T09:04:13.495Z,1.70
2022-10-26T09:06:59.986Z,1.70
2022-10-26T09:09:42.427Z,1.80
2022-10-26T09:12:36.823Z,1.83
2022-10-26T09:15:18.722Z,1.87
2022-10-26T09:17:57.465Z,1.70
2022-10-26T09:21:01.985Z,1.87
2022-10-26T09:23:32.875Z,1.67
2022-10-26T09:26:01.973Z,2.33
2022-10-26T09:28:37.739Z,2.10
2022-10-26T09:31:05.019Z,1.77
2022-10-26T09:33:36.816Z,1.87
2022-10-26T09:36:11.854Z,1.80
2022-10-26T09:38:43.614Z,2.10
2022-10-26T09:41:15.531Z,2.17
2022-10-26T09:44:03.243Z,1.90
2022-10-26T09:47:03.333Z,1.90
2022-10-26T09:49:43.401Z,2.40
2022-10-26T09:54:45.015Z,1.93
2022-10-26T09:57:15.946Z,2.20
2022-10-26T09:59:42.829Z,2.20
2022-10-26T10:02:37.583Z,1.87
2022-10-26T10:05:27.519Z,1.97
2022-10-26T10:08:14.276Z,1.87
2022-10-26T10:10:53.680Z,2.23
2022-10-26T10:13:22.906Z,2.00
2022-10-26T10:15:55.185Z,2.10
2022-10-26T10:18:24.145Z,1.90
2022-10-26T10:20:58.409Z,2.00
2022-10-26T10:23:28.073Z,2.00
2022-10-26T10:26:06.922Z,2.00
2022-10-26T10:28:34.500Z,2.30
2022-10-26T10:31:18.010Z,2.20
2022-10-26T10:33:45.742Z,2.10
2022-10-26T10:36:29.610Z,1.90
2022-10-26T10:38:57.144Z,1.80
2022-10-26T10:41:29.029Z,2.00
2022-10-26T10:44:15.188Z,2.10
2022-10-26T10:46:42.087Z,1.80
2022-10-26T10:49:22.088Z,2.10
2022-10-26T10:51:49.628Z,2.10
2022-10-26T10:54:21.136Z,2.20
2022-10-26T10:56:52.596Z,2.17
2022-10-26T10:59:33.961Z,1.80
2022-10-26T11:02:06.647Z,1.93
2022-10-26T11:04:34.085Z,2.13
2022-10-26T11:07:04.672Z,1.90
2022-10-26T11:09:36.032Z,2.03
2022-10-26T11:12:28.908Z,2.10
2022-10-26T11:15:19.112Z,2.13
2022-10-26T11:18:12.067Z,2.50
2022-10-26T11:20:51.869Z,1.90
2022-10-26T11:23:25.465Z,1.30
2022-10-26T11:26:18.503Z,1.50
2022-10-26T11:28:53.529Z,2.10
2022-10-26T11:31:31.772Z,1.93
2022-10-26T11:34:21.003Z,1.60
2022-10-26T11:36:54.538Z,1.33
2022-10-26T11:39:29.959Z,1.40
2022-10-26T11:42:02.012Z,1.27
2022-10-26T11:44:49.211Z,1.17
2022-10-26T11:47:49.414Z,1.63
2022-10-26T11:50:21.995Z,1.07
2022-10-26T11:52:58.720Z,1.10
2022-10-26T11:55:25.345Z,1.13
2022-10-26T11:57:55.144Z,1.07
2022-10-26T12:00:23.243Z,1.23
2022-10-26T12:02:55.775Z,1.17
2022-10-26T12:05:37.075Z,1.43
2022-10-26T12:08:10.731Z,0.77
2022-10-26T12:10:41.672Z,0.97
2022-10-26T12:13:33.562Z,1.00
2022-10-26T12:16:40.601Z,0.90
2022-10-26T12:19:18.025Z,0.90
2022-10-26T12:21:46.946Z,0.90
2022-10-26T12:24:22.211Z,1.10
2022-10-26T12:26:52.991Z,0.80
2022-10-26T12:29:34.841Z,0.60
2022-10-26T12:32:02.381Z,0.90
2022-10-26T12:34:31.845Z,0.90
2022-10-26T12:36:58.574Z,0.80
2022-10-26T12:39:38.096Z,0.90
2022-10-26T12:42:05.578Z,0.70
2022-10-26T12:44:45.672Z,0.80
2022-10-26T12:47:27.435Z,1.10
2022-10-26T12:50:07.188Z,1.00
2022-10-26T12:52:45.969Z,0.53
2022-10-26T12:55:13.214Z,1.00
2022-10-26T12:57:57.165Z,1.00
2022-10-26T13:00:26.590Z,1.00
2022-10-26T13:03:30.943Z,1.20
2022-10-26T13:06:04.232Z,0.80
2022-10-26T13:08:47.880Z,1.00
2022-10-26T13:11:17.710Z,1.00
2022-10-26T13:13:45.586Z,0.87
2022-10-26T13:16:16.504Z,0.87
2022-10-26T13:18:46.104Z,1.63
2022-10-26T13:21:16.883Z,0.80
2022-10-26T13:23:58.304Z,0.80
2022-10-26T13:26:27.592Z,0.83
2022-10-26T13:28:57.250Z,1.20
2022-10-26T13:31:33.496Z,1.17
2022-10-26T13:34:20.763Z,1.00
2022-10-26T13:37:13.326Z,1.53
2022-10-26T13:39:43.626Z,1.07
2022-10-26T13:42:18.166Z,1.70
2022-10-26T13:45:03.336Z,1.30
2022-10-26T13:47:42.252Z,1.00
2022-10-26T13:50:17.273Z,1.23
2022-10-26T13:52:58.443Z,1.20
2022-10-26T13:55:46.954Z,1.17
2022-10-26T13:58:23.186Z,1.50
2022-10-26T14:01:02.767Z,1.70
2022-10-26T14:03:33.173Z,1.30
2022-10-26T14:06:00.101Z,0.90
2022-10-26T14:08:26.731Z,1.53
2022-10-26T14:10:57.810Z,1.63
2022-10-26T14:13:27.103Z,1.40
2022-10-26T14:15:56.927Z,0.90
2022-10-26T14:18:30.206Z,1.17
2022-10-26T14:21:01.404Z,1.10
2022-10-26T14:23:29.490Z,1.67
2022-10-26T14:25:59.027Z,1.00
2022-10-26T14:28:29.197Z,0.90
2022-10-26T14:31:15.260Z,1.10
2022-10-26T14:33:44.748Z,1.13
2022-10-26T14:36:12.097Z,1.17
2022-10-26T14:38:45.102Z,1.13
2022-10-26T14:41:15.785Z,1.33
2022-10-26T14:43:43.869Z,1.30
2022-10-26T14:46:20.223Z,1.80
2022-10-26T14:48:58.776Z,1.43
2022-10-26T14:51:30.588Z,1.40
2022-10-26T14:54:01.018Z,1.30
2022-10-26T14:56:29.342Z,1.60
2022-10-26T14:58:57.558Z,2.03
2022-10-26T15:01:29.256Z,0.87
2022-10-26T15:04:04.823Z,0.83
2022-10-26T15:06:35.593Z,1.10
2022-10-26T15:09:07.382Z,0.97
2022-10-26T15:11:35.087Z,0.80
2022-10-26T15:14:02.793Z,0.80
2022-10-26T15:16:34.350Z,1.17
2022-10-26T15:19:08.727Z,0.90
2022-10-26T15:21:45.075Z,0.77
2022-10-26T15:24:26.332Z,0.60
2022-10-26T15:26:53.236Z,1.30
2022-10-26T15:29:48.865Z,1.00
2022-10-26T15:32:32.083Z,1.20
2022-10-26T15:35:11.628Z,1.67
2022-10-26T15:37:38.698Z,1.17
2022-10-26T15:40:06.529Z,1.30
2022-10-26T15:42:38.129Z,0.90
2022-10-26T15:45:19.572Z,1.10
2022-10-26T15:47:47.240Z,1.00
2022-10-26T15:50:16.365Z,1.10
2022-10-26T15:52:46.670Z,1.00
2022-10-26T15:55:16.494Z,1.10
2022-10-26T15:57:43.399Z,1.60
2022-10-26T16:00:15.923Z,1.07
2022-10-26T16:02:45.227Z,1.00
2022-10-26T16:05:14.780Z,1.53
2022-10-26T16:07:43.215Z,1.63
2022-10-26T16:10:17.419Z,1.97
2022-10-26T16:12:44.077Z,1.47
2022-10-26T16:15:17.980Z,3.07
2022-10-26T16:17:45.277Z,1.40
2022-10-26T16:20:19.335Z,1.40
2022-10-26T16:22:48.298Z,1.77
2022-10-26T16:25:21.627Z,1.70
2022-10-26T16:27:49.587Z,1.30
2022-10-26T16:30:17.240Z,2.03
2022-10-26T16:32:44.156Z,2.47
2022-10-26T16:35:12.216Z,2.20
2022-10-26T16:37:39.358Z,2.23
2022-10-26T16:40:07.994Z,2.10
2022-10-26T16:42:35.159Z,2.17
2022-10-26T16:45:02.941Z,1.93
2022-10-26T16:47:36.289Z,2.10
2022-10-26T16:50:04.370Z,2.30
2022-10-26T16:52:31.030Z,2.40
2022-10-26T16:54:57.712Z,3.00
2022-10-26T16:57:24.407Z,3.43
2022-10-26T16:59:51.138Z,2.60
2022-10-26T17:02:20.898Z,2.47
2022-10-26T17:04:47.705Z,2.53
2022-10-26T17:07:14.286Z,3.70
2022-10-26T17:09:41.022Z,4.13
2022-10-26T17:12:07.628Z,4.43
2022-10-26T17:14:34.335Z,3.10
2022-10-26T17:17:02.098Z,4.27
2022-10-26T17:19:28.849Z,3.13
2022-10-26T17:21:55.608Z,2.60
2022-10-26T17:24:22.387Z,2.23
2022-10-26T17:26:48.917Z,2.60
2022-10-26T17:29:15.616Z,2.97
2022-10-26T17:31:42.223Z,2.87
2022-10-26T17:34:10.569Z,2.50
2022-10-26T17:36:37.213Z,2.80
2022-10-26T17:39:04.277Z,2.40
2022-10-26T17:41:30.839Z,2.60
2022-10-26T17:43:57.435Z,2.47
2022-10-26T17:46:26.316Z,2.93
2022-10-26T17:48:57.869Z,2.77
2022-10-26T17:51:26.090Z,3.10
2022-10-26T17:53:53.475Z,2.63
2022-10-26T17:56:23.095Z,2.37
2022-10-26T17:58:58.119Z,2.40
2022-10-26T18:01:25.868Z,2.73
2022-10-26T18:03:53.218Z,2.10
2022-10-26T18:06:23.086Z,2.60
2022-10-26T18:08:50.359Z,2.93
2022-10-26T18:11:25.341Z,2.70
2022-10-26T18:14:01.106Z,2.43
2022-10-26T18:16:28.214Z,2.80
2022-10-26T18:19:00.323Z,2.70
2022-10-26T18:21:29.370Z,2.53
2022-10-26T18:23:56.286Z,2.67
2022-10-26T18:26:26.309Z,1.87
2022-10-26T18:28:53.289Z,2.53
2022-10-26T18:31:21.752Z,2.80
2022-10-26T18:33:49.087Z,2.60
2022-10-26T18:36:18.427Z,2.63
2022-10-26T18:38:47.219Z,2.47
2022-10-26T18:41:15.858Z,2.57
2022-10-26T18:43:44.588Z,4.20
2022-10-26T18:46:19.168Z,2.67
2022-10-26T18:48:48.175Z,2.80
2022-10-26T18:51:18.302Z,5.43
2022-10-26T18:53:46.359Z,2.80
2022-10-26T18:56:16.277Z,2.90
2022-10-26T18:58:45.035Z,2.83
2022-10-26T19:01:20.287Z,2.80
2022-10-26T19:03:48.182Z,3.70
2022-10-26T19:06:20.207Z,3.73
2022-10-26T19:08:47.309Z,2.60
2022-10-26T19:11:16.303Z,3.23
2022-10-26T19:13:45.084Z,2.50
2022-10-26T19:16:17.377Z,3.13
2022-10-26T19:18:55.866Z,4.10
2022-10-26T19:21:23.496Z,3.77
2022-10-26T19:23:52.657Z,3.70
2022-10-26T19:26:25.344Z,3.50
2022-10-26T19:29:02.672Z,3.87
2022-10-26T19:31:33.604Z,3.20
2022-10-26T19:34:00.844Z,2.67
2022-10-26T19:36:28.495Z,2.73
2022-10-26T19:38:56.951Z,3.00
2022-10-26T19:41:26.537Z,3.30
2022-10-26T19:43:54.794Z,3.60
2022-10-26T19:46:24.535Z,2.83
2022-10-26T19:48:54.140Z,2.57
2022-10-26T19:51:21.359Z,2.90
2022-10-26T19:53:48.450Z,2.60
2022-10-26T19:56:15.820Z,3.07
2022-10-26T19:58:44.413Z,2.87
2022-10-26T20:01:13.798Z,2.90
2022-10-26T20:03:41.080Z,2.17
2022-10-26T20:06:12.825Z,2.70
2022-10-26T20:08:44.995Z,2.97
2022-10-26T20:11:15.519Z,2.40
2022-10-26T20:13:44.803Z,2.83
2022-10-26T20:16:12.295Z,3.20
2022-10-26T20:18:42.757Z,2.53
2022-10-26T20:21:16.309Z,2.43
2022-10-26T20:23:43.518Z,2.10
2022-10-26T20:26:18.030Z,2.73
2022-10-26T20:28:48.893Z,2.20
2022-10-26T20:31:15.528Z,2.33
2022-10-26T20:33:42.906Z,1.93
2022-10-26T20:36:10.978Z,3.70
2022-10-26T20:38:39.273Z,2.43
2022-10-26T20:41:09.254Z,2.57
2022-10-26T20:43:38.913Z,2.47
2022-10-26T20:46:06.216Z,2.20
2022-10-26T20:48:33.066Z,2.07
2022-10-26T20:54:01.106Z,2.37
2022-10-26T20:56:29.161Z,2.60
2022-10-26T20:58:58.119Z,1.90
2022-10-26T21:01:30.726Z,2.77
2022-10-26T21:03:59.922Z,2.30
2022-10-26T21:06:27.363Z,2.80
2022-10-26T21:08:56.345Z,2.23
2022-10-26T21:11:24.710Z,2.00
2022-10-26T21:13:53.824Z,2.57
2022-10-26T21:18:52.455Z,2.43
2022-10-26T21:21:18.987Z,2.33
2022-10-26T21:23:46.537Z,2.10
2022-10-26T21:26:13.319Z,2.03
2022-10-26T21:28:41.974Z,1.70
2022-10-26T21:31:11.103Z,2.10
2022-10-26T21:33:38.327Z,2.13
2022-10-26T21:36:07.242Z,1.70
2022-10-26T21:38:35.344Z,2.23
2022-10-26T21:41:16.251Z,2.30
2022-10-26T21:43:48.351Z,2.33
2022-10-26T21:46:16.360Z,2.23
2022-10-26T21:48:42.963Z,2.17
2022-10-26T21:51:20.342Z,2.40
2022-10-26T21:53:47.803Z,2.40
2022-10-26T21:56:17.334Z,2.20
2022-10-26T21:58:46.394Z,2.10
2022-10-26T22:01:15.299Z,2.17
2022-10-26T22:03:42.878Z,2.13
2022-10-26T22:06:13.437Z,2.50
2022-10-26T22:08:40.061Z,2.23
2022-10-26T22:11:15.201Z,2.50
2022-10-26T22:13:43.727Z,2.30
2022-10-26T22:16:25.227Z,2.47
2022-10-26T22:18:56.392Z,2.20
2022-10-26T22:21:25.626Z,2.23
2022-10-26T22:23:52.261Z,2.30
2022-10-26T22:26:21.639Z,2.53
2022-10-26T22:28:50.900Z,2.00
2022-10-26T22:31:20.341Z,2.37
2022-10-26T22:33:55.515Z,2.03
2022-10-26T22:36:22.673Z,2.10
2022-10-26T22:38:50.296Z,2.37
2022-10-26T22:41:18.398Z,2.40
2022-10-26T22:43:45.513Z,2.57
2022-10-26T22:46:17.640Z,2.20
2022-10-26T22:48:47.354Z,2.60
2022-10-26T22:51:15.946Z,2.40
2022-10-26T22:53:43.241Z,2.27
2022-10-26T22:56:11.678Z,2.10
2022-10-26T22:58:39.245Z,2.63
2022-10-26T23:01:08.343Z,2.33
2022-10-26T23:03:35.417Z,2.43
2022-10-26T23:06:03.314Z,2.60
2022-10-26T23:08:29.918Z,2.47
2022-10-26T23:11:00.525Z,2.13
2022-10-26T23:13:28.930Z,2.43
2022-10-26T23:15:56.151Z,2.40
2022-10-26T23:18:23.385Z,2.63
2022-10-26T23:20:52.971Z,2.43
2022-10-26T23:23:19.527Z,2.60
2022-10-26T23:25:46.392Z,2.50
2022-10-26T23:28:13.702Z,2.47
2022-10-26T23:30:40.195Z,1.83
2022-10-26T23:33:07.837Z,2.30
2022-10-26T23:35:34.377Z,2.53
2022-10-26T23:38:00.912Z,2.30
2022-10-26T23:40:28.578Z,2.10
2022-10-26T23:42:55.819Z,2.67
2022-10-26T23:45:22.360Z,2.40
2022-10-26T23:47:49.580Z,2.50
2022-10-26T23:50:16.847Z,2.33
2022-10-26T23:52:49.524Z,2.70
2022-10-26T23:55:17.576Z,2.50
2022-10-26T23:57:44.072Z,2.33
